Valerio, Brazil
Current Conditions -  °F | °C
As of 4:00 PM on Tuesday 27 Jan 2015 (Local Time) from SARI Reporting Station
Overcast Overcast  
Wind Chill: 84°   Ceiling: 20000
Heat Index: 90°   Visibility: 6mi
Dew Point: 72°   Wind: 9mph
Humidity: 66%   Direction: 20°NNE
Pressure: 29.88"   Gusts: NA
Location:  25.77°S, 53.66°W
Report Text: SARI 271800Z 02008KT 9999 SCT025 OVC20029/22 Q1012
Loading
Personal Weather Stations






























Interactive Weather Map New forecast layout! Learn more

10-Day Weather Forecast

Advertisements
Track Severe Weather on mobile